createdAt,value
2022-08-31T00:00:32.649Z,98942.22
2022-08-31T00:03:18.652Z,98943.06
2022-08-31T00:05:45.591Z,98950.97
2022-08-31T00:08:12.489Z,98928.22
2022-08-31T00:10:43.279Z,98943.59
2022-08-31T00:13:12.464Z,98940.81
2022-08-31T00:15:39.734Z,98941.50
2022-08-31T00:18:06.887Z,98941.91
2022-08-31T00:20:35.034Z,98920.88
2022-08-31T00:23:09.982Z,98923.41
2022-08-31T00:25:41.118Z,98939.09
2022-08-31T00:28:09.259Z,98938.50
2022-08-31T00:30:36.765Z,98948.31
2022-08-31T00:33:04.830Z,98941.50
2022-08-31T00:35:36.083Z,98936.00
2022-08-31T00:38:05.194Z,98936.16
2022-08-31T00:40:33.023Z,98935.91
2022-08-31T00:43:10.163Z,98930.63
2022-08-31T00:45:37.132Z,98933.97
2022-08-31T00:48:04.029Z,98928.94
2022-08-31T00:50:31.203Z,98944.59
2022-08-31T00:53:01.166Z,98928.53
2022-08-31T00:55:34.641Z,98940.44
2022-08-31T00:58:07.575Z,98946.16
2022-08-31T01:00:34.680Z,98951.19
2022-08-31T01:03:05.594Z,98961.13
2022-08-31T01:05:33.422Z,98976.16
2022-08-31T01:08:01.250Z,98979.59
2022-08-31T01:10:35.334Z,98979.50
2022-08-31T01:13:02.799Z,98990.84
2022-08-31T01:15:31.925Z,98973.94
2022-08-31T01:18:02.347Z,98986.16
2022-08-31T01:20:48.881Z,99006.97
2022-08-31T01:23:26.381Z,99009.25
2022-08-31T01:25:56.346Z,99012.91
2022-08-31T01:28:24.049Z,99035.22
2022-08-31T01:31:10.243Z,99033.13
2022-08-31T01:33:39.312Z,99043.94
2022-08-31T01:36:11.042Z,99045.31
2022-08-31T01:38:39.932Z,99038.22
2022-08-31T01:41:06.950Z,99041.09
2022-08-31T01:43:34.950Z,99068.97
2022-08-31T01:46:05.956Z,99069.53
2022-08-31T01:48:41.270Z,99055.53
2022-08-31T01:51:10.733Z,99050.41
2022-08-31T01:53:41.341Z,99054.41
2022-08-31T01:56:17.840Z,99060.88
2022-08-31T01:58:45.076Z,99053.09
2022-08-31T02:01:32.663Z,99049.78
2022-08-31T02:03:59.712Z,99036.16
2022-08-31T02:06:26.603Z,99049.78
2022-08-31T02:08:53.764Z,99051.25
2022-08-31T02:11:20.636Z,99049.78
2022-08-31T02:13:47.714Z,99048.00
2022-08-31T02:16:14.695Z,99015.38
2022-08-31T02:18:41.556Z,99030.78
2022-08-31T02:21:08.437Z,99040.75
2022-08-31T02:23:35.254Z,99033.53
2022-08-31T02:26:02.068Z,99019.56
2022-08-31T02:28:28.929Z,99034.88
2022-08-31T02:30:55.832Z,99052.09
2022-08-31T02:33:24.897Z,99050.94
2022-08-31T02:35:53.665Z,99065.66
2022-08-31T02:38:22.934Z,99068.53
2022-08-31T02:40:51.634Z,99069.59
2022-08-31T02:43:24.301Z,99060.31
2022-08-31T02:45:53.471Z,99067.06
2022-08-31T02:48:21.142Z,99070.91
2022-08-31T02:50:51.706Z,99053.34
2022-08-31T02:53:22.379Z,99074.16
2022-08-31T02:55:49.892Z,99061.81
2022-08-31T02:58:21.911Z,99078.69
2022-08-31T03:00:51.451Z,99071.06
2022-08-31T03:03:19.003Z,99084.81
2022-08-31T03:05:45.962Z,99075.44
2022-08-31T03:08:12.803Z,99058.88
2022-08-31T03:10:39.649Z,99051.31
2022-08-31T03:13:06.441Z,99072.09
2022-08-31T03:15:33.705Z,99074.31
2022-08-31T03:18:00.536Z,99056.13
2022-08-31T03:20:34.476Z,99063.34
2022-08-31T03:23:01.930Z,99057.84
2022-08-31T03:25:30.873Z,99061.19
2022-08-31T03:27:57.834Z,99068.34
2022-08-31T03:30:27.456Z,99051.63
2022-08-31T03:32:55.003Z,99059.59
2022-08-31T03:35:27.904Z,99061.63
2022-08-31T03:37:54.989Z,99054.41
2022-08-31T03:40:22.085Z,99050.94
2022-08-31T03:42:49.981Z,99054.75
2022-08-31T03:45:16.854Z,99048.84
2022-08-31T03:47:44.711Z,99038.31
2022-08-31T03:50:11.867Z,99049.28
2022-08-31T03:52:38.978Z,99055.69
2022-08-31T03:55:07.834Z,99047.31
2022-08-31T03:57:35.046Z,99075.25
2022-08-31T04:00:02.200Z,99054.66
2022-08-31T04:02:30.375Z,99074.59
2022-08-31T04:04:59.776Z,99076.81
2022-08-31T04:07:26.773Z,99089.59
2022-08-31T04:09:53.693Z,99084.94
2022-08-31T04:12:20.525Z,99086.66
2022-08-31T04:14:47.381Z,99075.47
2022-08-31T04:17:14.398Z,99088.44
2022-08-31T04:19:41.435Z,99100.09
2022-08-31T04:22:08.695Z,99096.19
2022-08-31T04:24:35.726Z,99098.63
2022-08-31T04:27:02.677Z,99099.13
2022-08-31T04:29:29.824Z,99088.72
2022-08-31T04:31:56.657Z,99106.13
2022-08-31T04:34:23.820Z,99108.28
2022-08-31T04:36:50.691Z,99097.31
2022-08-31T04:39:18.263Z,99106.53
2022-08-31T04:41:46.319Z,99115.56
2022-08-31T04:44:17.773Z,99099.31
2022-08-31T04:46:46.691Z,99107.06
2022-08-31T04:49:15.149Z,99096.09
2022-08-31T04:51:42.221Z,99096.44
2022-08-31T04:54:12.125Z,99124.28
2022-08-31T04:56:44.850Z,99112.22
2022-08-31T04:59:17.904Z,99107.00
2022-08-31T05:01:45.557Z,99106.56
2022-08-31T05:04:15.216Z,99107.00
2022-08-31T05:06:45.011Z,99109.38
2022-08-31T05:09:19.713Z,99114.03
2022-08-31T05:11:46.960Z,99116.06
2022-08-31T05:14:13.789Z,99100.78
2022-08-31T05:16:42.069Z,99115.81
2022-08-31T05:19:09.574Z,99116.06
2022-08-31T05:21:40.377Z,99121.78
2022-08-31T05:24:20.206Z,99120.81
2022-08-31T05:26:53.857Z,99120.22
2022-08-31T05:29:25.253Z,99124.41
2022-08-31T05:31:52.830Z,99114.38
2022-08-31T05:34:21.611Z,99129.66
2022-08-31T05:36:56.648Z,99132.16
2022-08-31T05:39:24.520Z,99134.56
2022-08-31T05:41:51.441Z,99141.22
2022-08-31T05:44:21.208Z,99143.13
2022-08-31T05:46:54.743Z,99154.00
2022-08-31T05:49:28.537Z,99139.84
2022-08-31T05:51:56.453Z,99144.56
2022-08-31T05:54:23.296Z,99145.91
2022-08-31T05:56:50.119Z,99165.34
2022-08-31T05:59:16.956Z,99165.78
2022-08-31T06:01:45.163Z,99172.47
2022-08-31T06:04:12.415Z,99167.34
2022-08-31T06:06:39.210Z,99157.09
2022-08-31T06:09:08.218Z,99148.00
2022-08-31T06:11:38.200Z,99153.13
2022-08-31T06:14:06.100Z,99154.69
2022-08-31T06:16:33.440Z,99167.31
2022-08-31T06:19:03.349Z,99152.53
2022-08-31T06:21:33.546Z,99169.72
2022-08-31T06:24:02.152Z,99174.00
2022-08-31T06:26:32.905Z,99171.63
2022-08-31T06:29:04.857Z,99168.19
2022-08-31T06:31:46.984Z,99172.34
2022-08-31T06:34:17.255Z,99153.50
2022-08-31T06:36:44.305Z,99154.56
2022-08-31T06:39:12.498Z,99168.66
2022-08-31T06:41:40.901Z,99177.00
2022-08-31T06:44:11.589Z,99175.53
2022-08-31T06:46:40.292Z,99159.94
2022-08-31T06:49:08.771Z,99170.56
2022-08-31T06:51:37.847Z,99172.59
2022-08-31T06:54:28.593Z,99164.00
2022-08-31T06:56:58.798Z,99167.47
2022-08-31T06:59:29.356Z,99182.53
2022-08-31T07:01:58.849Z,99186.47
2022-08-31T07:04:26.281Z,99145.19
2022-08-31T07:06:53.735Z,99183.84
2022-08-31T07:09:20.582Z,99178.44
2022-08-31T07:11:51.221Z,99159.28
2022-08-31T07:14:26.204Z,99167.75
2022-08-31T07:16:56.577Z,99170.50
2022-08-31T07:19:25.006Z,99188.16
2022-08-31T07:21:59.111Z,99173.59
2022-08-31T07:24:30.567Z,99177.28
2022-08-31T07:27:04.224Z,99188.63
2022-08-31T07:29:40.485Z,99184.56
2022-08-31T07:32:10.830Z,99193.75
2022-08-31T07:34:38.695Z,99185.03
2022-08-31T07:37:25.199Z,99188.38
2022-08-31T07:40:11.545Z,99186.94
2022-08-31T07:42:44.888Z,99190.88
2022-08-31T07:45:23.307Z,99192.91
2022-08-31T07:47:56.202Z,99204.59
2022-08-31T07:50:23.748Z,99185.28
2022-08-31T07:52:54.084Z,99190.06
2022-08-31T07:55:23.783Z,99200.78
2022-08-31T07:57:53.400Z,99188.50
2022-08-31T08:00:29.476Z,99198.63
2022-08-31T08:02:56.560Z,99205.31
2022-08-31T08:05:28.894Z,99208.84
2022-08-31T08:08:09.342Z,99200.28
2022-08-31T08:10:43.518Z,99207.69
2022-08-31T08:13:12.509Z,99197.78
2022-08-31T08:15:40.556Z,99215.81
2022-08-31T08:18:08.042Z,99206.03
2022-08-31T08:20:38.449Z,99205.06
2022-08-31T08:23:15.204Z,99199.09
2022-08-31T08:25:46.316Z,99212.06
2022-08-31T08:31:06.711Z,99220.09
2022-08-31T08:33:35.497Z,99232.78
2022-08-31T08:36:07.792Z,99214.91
2022-08-31T08:38:39.127Z,99233.25
2022-08-31T08:41:19.942Z,99225.38
2022-08-31T08:43:57.238Z,99231.34
2022-08-31T08:47:38.016Z,99222.13
2022-08-31T08:49:40.327Z,99233.44
2022-08-31T08:52:17.324Z,99230.22
2022-08-31T08:54:48.256Z,99236.78
2022-08-31T08:57:25.276Z,99226.53
2022-08-31T08:59:57.275Z,99241.59
2022-08-31T09:03:01.884Z,99241.94
2022-08-31T09:06:09.602Z,99246.38
2022-08-31T09:09:18.205Z,99252.56
2022-08-31T09:11:59.216Z,99243.28
2022-08-31T09:15:07.619Z,99235.97
2022-08-31T09:17:59.948Z,99243.94
2022-08-31T09:20:28.209Z,99241.81
2022-08-31T09:22:57.279Z,99232.59
2022-08-31T09:25:37.390Z,99237.94
2022-08-31T09:28:08.338Z,99242.69
2022-08-31T09:30:50.758Z,99248.09
2022-08-31T09:33:33.349Z,99252.38
2022-08-31T09:36:25.420Z,99250.34
2022-08-31T09:38:52.262Z,99250.59
2022-08-31T09:41:38.145Z,99247.97
2022-08-31T09:44:31.942Z,99242.25
2022-08-31T09:47:02.813Z,99245.06
2022-08-31T09:49:38.537Z,99240.25
2022-08-31T09:52:47.849Z,99234.03
2022-08-31T09:55:25.433Z,99245.72
2022-08-31T09:58:04.367Z,99244.66
2022-08-31T10:00:47.894Z,99246.75
2022-08-31T10:03:24.386Z,99245.69
2022-08-31T10:05:54.579Z,99239.00
2022-08-31T10:08:53.572Z,99246.13
2022-08-31T10:11:21.561Z,99246.97
2022-08-31T10:14:36.105Z,99253.03
2022-08-31T10:17:26.158Z,99246.97
2022-08-31T10:20:06.568Z,99245.16
2022-08-31T10:22:52.273Z,99244.97
2022-08-31T10:25:42.816Z,99249.47
2022-08-31T10:28:17.390Z,99244.56
2022-08-31T10:31:03.587Z,99251.88
2022-08-31T10:33:57.871Z,99236.63
2022-08-31T10:36:33.656Z,99253.00
2022-08-31T10:39:01.286Z,99251.06
2022-08-31T10:41:38.817Z,99253.38
2022-08-31T10:44:23.842Z,99248.81
2022-08-31T10:46:54.402Z,99252.16
2022-08-31T10:49:22.426Z,99244.13
2022-08-31T10:52:11.477Z,99250.63
2022-08-31T10:55:13.041Z,99242.28
2022-08-31T10:57:56.343Z,99233.75
2022-08-31T11:00:42.033Z,99252.44
2022-08-31T11:03:12.265Z,99254.69
2022-08-31T11:06:02.895Z,99250.13
2022-08-31T11:08:49.818Z,99248.06
2022-08-31T11:11:42.361Z,99220.59
2022-08-31T11:14:27.028Z,99261.06
2022-08-31T11:17:20.594Z,99260.66
2022-08-31T11:20:34.948Z,99255.88
2022-08-31T11:23:44.891Z,99258.97
2022-08-31T11:26:47.110Z,99250.38
2022-08-31T11:29:43.209Z,99252.88
2022-08-31T11:32:35.196Z,99244.53
2022-08-31T11:35:08.464Z,99249.94
2022-08-31T11:37:54.245Z,99258.41
2022-08-31T11:40:43.709Z,99252.03
2022-08-31T11:43:32.395Z,99253.66
2022-08-31T11:46:26.434Z,99246.97
2022-08-31T11:48:54.480Z,99248.25
2022-08-31T11:51:42.461Z,99243.53
2022-08-31T11:54:41.963Z,99242.09
2022-08-31T11:57:17.449Z,99231.13
2022-08-31T11:59:47.203Z,99223.28
2022-08-31T12:02:20.321Z,99233.19
2022-08-31T12:04:53.391Z,99231.63
2022-08-31T12:07:32.394Z,99226.44
2022-08-31T12:10:15.404Z,99234.38
2022-08-31T12:13:19.448Z,99230.22
2022-08-31T12:16:12.031Z,99231.06
2022-08-31T12:19:06.826Z,99235.53
2022-08-31T12:22:05.145Z,99205.97
2022-08-31T12:24:49.561Z,99208.59
2022-08-31T12:27:41.175Z,99233.59
2022-08-31T12:30:23.421Z,99224.56
2022-08-31T12:33:18.175Z,99216.16
2022-08-31T12:35:49.338Z,99223.28
2022-08-31T12:38:23.055Z,99230.41
2022-08-31T12:40:54.828Z,99220.53
2022-08-31T12:43:57.380Z,99222.81
2022-08-31T12:46:49.880Z,99202.25
2022-08-31T12:49:41.316Z,99222.25
2022-08-31T12:52:49.477Z,99213.69
2022-08-31T12:55:26.985Z,99209.59
2022-08-31T12:58:30.443Z,99197.34
2022-08-31T13:01:14.459Z,99207.03
2022-08-31T13:03:54.257Z,99204.06
2022-08-31T13:06:35.073Z,99204.19
2022-08-31T13:09:04.310Z,99192.00
2022-08-31T13:11:40.321Z,99190.75
2022-08-31T13:14:31.717Z,99183.53
2022-08-31T13:17:18.039Z,99192.59
2022-08-31T13:20:03.316Z,99188.31
2022-08-31T13:22:41.051Z,99187.94
2022-08-31T13:25:37.077Z,99178.16
2022-08-31T13:28:14.183Z,99173.03
2022-08-31T13:30:55.289Z,99176.00
2022-08-31T13:33:31.046Z,99171.88
2022-08-31T13:36:34.332Z,99164.38
2022-08-31T13:39:12.086Z,99163.53
2022-08-31T13:42:05.291Z,99159.38
2022-08-31T13:44:39.812Z,99156.88
2022-08-31T13:47:27.463Z,99144.13
2022-08-31T13:50:21.684Z,99129.28
2022-08-31T13:53:24.996Z,99152.84
2022-08-31T13:55:44.878Z,99146.06
2022-08-31T13:58:27.820Z,99147.97
2022-08-31T14:01:24.023Z,99144.09
2022-08-31T14:03:59.487Z,99146.44
2022-08-31T14:06:37.848Z,99147.38
2022-08-31T14:09:17.441Z,99145.22
2022-08-31T14:12:00.099Z,99144.22
2022-08-31T14:14:40.136Z,99142.41
2022-08-31T14:17:16.252Z,99138.78
2022-08-31T14:19:44.332Z,99112.03
2022-08-31T14:22:31.512Z,99133.34
2022-08-31T14:25:00.620Z,99137.63
2022-08-31T14:27:28.532Z,99135.97
2022-08-31T14:29:55.847Z,99129.25
2022-08-31T14:32:22.703Z,99116.78
2022-08-31T14:34:51.206Z,99118.69
2022-08-31T14:37:23.038Z,99120.06
2022-08-31T14:40:05.540Z,99114.50
2022-08-31T14:42:38.051Z,99107.25
2022-08-31T14:45:11.157Z,99102.84
2022-08-31T14:47:43.830Z,99096.47
2022-08-31T14:50:14.112Z,99108.44
2022-08-31T14:52:52.939Z,99111.59
2022-08-31T14:55:22.956Z,99118.44
2022-08-31T14:57:58.229Z,99119.69
2022-08-31T15:00:26.284Z,99110.00
2022-08-31T15:02:53.701Z,99130.34
2022-08-31T15:05:23.902Z,99133.03
2022-08-31T15:07:53.008Z,99121.03
2022-08-31T15:10:24.252Z,99117.97
2022-08-31T15:12:52.467Z,99132.41
2022-08-31T15:15:20.382Z,99134.38
2022-08-31T15:17:51.120Z,99129.53
2022-08-31T15:20:20.923Z,99115.22
2022-08-31T15:22:48.597Z,99097.22
2022-08-31T15:25:18.744Z,99113.59
2022-08-31T15:27:46.582Z,99122.72
2022-08-31T15:30:18.008Z,99111.88
2022-08-31T15:32:46.756Z,99103.81
2022-08-31T15:35:19.913Z,99117.84
2022-08-31T15:37:55.176Z,99122.25
2022-08-31T15:40:23.414Z,99107.13
2022-08-31T15:42:50.894Z,99118.78
2022-08-31T15:45:17.833Z,99097.09
2022-08-31T15:48:03.116Z,99115.97
2022-08-31T15:50:32.117Z,99117.59
2022-08-31T15:53:09.608Z,99106.78
2022-08-31T15:55:40.440Z,99098.59
2022-08-31T15:58:09.326Z,99117.25
2022-08-31T16:00:37.323Z,99111.66
2022-08-31T16:03:06.066Z,99111.38
2022-08-31T16:05:35.735Z,99107.22
2022-08-31T16:08:03.148Z,99081.13
2022-08-31T16:10:31.119Z,99080.56
2022-08-31T16:12:58.239Z,99100.56
2022-08-31T16:15:26.204Z,99103.47
2022-08-31T16:17:57.562Z,99069.16
2022-08-31T16:20:27.235Z,99079.63
2022-08-31T16:22:54.269Z,99086.19
2022-08-31T16:25:21.171Z,99072.59
2022-08-31T16:27:48.074Z,99077.00
2022-08-31T16:30:15.953Z,99075.69
2022-08-31T16:32:42.943Z,99076.84
2022-08-31T16:35:10.666Z,99069.09
2022-08-31T16:37:37.859Z,99054.50
2022-08-31T16:40:05.661Z,99053.81
2022-08-31T16:42:32.569Z,99062.13
2022-08-31T16:45:02.424Z,99074.34
2022-08-31T16:47:29.831Z,99076.84
2022-08-31T16:49:59.928Z,99082.50
2022-08-31T16:52:27.436Z,99072.88
2022-08-31T16:54:58.712Z,99085.91
2022-08-31T16:57:28.981Z,99080.91
2022-08-31T16:59:57.415Z,99069.09
2022-08-31T17:02:24.948Z,99090.81
2022-08-31T17:04:53.657Z,99095.84
2022-08-31T17:07:23.999Z,99092.44
2022-08-31T17:09:56.071Z,99099.38
2022-08-31T17:12:26.114Z,99091.53
2022-08-31T17:14:53.395Z,99105.81
2022-08-31T17:17:24.928Z,99098.72
2022-08-31T17:19:55.122Z,99103.56
2022-08-31T17:22:31.578Z,99076.38
2022-08-31T17:25:02.860Z,99106.09
2022-08-31T17:27:33.048Z,99106.09
2022-08-31T17:30:05.832Z,99082.19
2022-08-31T17:32:36.478Z,99105.63
2022-08-31T17:35:07.759Z,99088.16
2022-08-31T17:37:36.549Z,99076.78
2022-08-31T17:40:08.036Z,99095.81
2022-08-31T17:42:35.795Z,99055.81
2022-08-31T17:45:05.732Z,99082.31
2022-08-31T17:47:33.252Z,99087.63
2022-08-31T17:50:00.390Z,99095.78
2022-08-31T17:52:27.949Z,99099.81
2022-08-31T17:54:55.269Z,99110.78
2022-08-31T17:57:26.670Z,99099.22
2022-08-31T17:59:55.180Z,99117.50
2022-08-31T18:02:32.467Z,99108.97
2022-08-31T18:05:00.991Z,99097.38
2022-08-31T18:07:28.703Z,99118.53
2022-08-31T18:09:55.856Z,99126.56
2022-08-31T18:12:25.466Z,99114.28
2022-08-31T18:14:53.989Z,99131.50
2022-08-31T18:17:22.395Z,99136.47
2022-08-31T18:19:49.854Z,99124.31
2022-08-31T18:22:29.897Z,99106.16
2022-08-31T18:24:57.529Z,99135.97
2022-08-31T18:27:24.770Z,99136.34
2022-08-31T18:29:53.254Z,99124.06
2022-08-31T18:32:20.398Z,99131.81
2022-08-31T18:34:47.596Z,99144.91
2022-08-31T18:37:22.056Z,99145.75
2022-08-31T18:40:08.645Z,99143.00
2022-08-31T18:42:56.947Z,99144.84
2022-08-31T18:45:26.413Z,99119.81
2022-08-31T18:50:46.707Z,99143.06
2022-08-31T18:53:28.867Z,99133.28
2022-08-31T18:55:59.174Z,99158.78
2022-08-31T18:58:26.235Z,99144.59
2022-08-31T19:00:58.368Z,99157.84
2022-08-31T19:03:27.544Z,99164.03
2022-08-31T19:05:56.882Z,99150.22
2022-08-31T19:08:25.190Z,99162.97
2022-08-31T19:10:54.234Z,99136.88
2022-08-31T19:13:21.306Z,99154.06
2022-08-31T19:15:48.487Z,99138.09
2022-08-31T19:18:16.556Z,99153.94
2022-08-31T19:20:43.527Z,99155.59
2022-08-31T19:23:10.361Z,99155.25
2022-08-31T19:25:45.272Z,99133.28
2022-08-31T19:28:12.175Z,99135.69
2022-08-31T19:30:39.208Z,99155.84
2022-08-31T19:33:12.214Z,99151.56
2022-08-31T19:35:40.820Z,99169.81
2022-08-31T19:38:07.687Z,99163.38
2022-08-31T19:40:39.958Z,99165.03
2022-08-31T19:45:55.331Z,99147.41
2022-08-31T19:48:23.568Z,99163.97
2022-08-31T19:50:52.074Z,99108.53
2022-08-31T19:53:22.511Z,99154.06
2022-08-31T19:55:52.570Z,99153.00
2022-08-31T19:58:25.366Z,99141.19
2022-08-31T20:01:04.314Z,99150.75
2022-08-31T20:03:34.040Z,99144.88
2022-08-31T20:06:12.755Z,99128.56
2022-08-31T20:08:42.068Z,99149.31
2022-08-31T20:11:11.432Z,99132.94
2022-08-31T20:13:40.490Z,99146.31
2022-08-31T20:16:13.022Z,99138.09
2022-08-31T20:18:48.412Z,99155.50
2022-08-31T20:21:23.687Z,99148.59
2022-08-31T20:23:56.817Z,99157.16
2022-08-31T20:26:33.098Z,99149.06
2022-08-31T20:29:08.818Z,99159.09
2022-08-31T20:31:42.746Z,99154.41
2022-08-31T20:34:18.611Z,99136.44
2022-08-31T20:36:58.525Z,99148.59
2022-08-31T20:39:29.900Z,99147.88
2022-08-31T20:41:58.917Z,99153.59
2022-08-31T20:44:31.270Z,99144.03
2022-08-31T20:47:21.439Z,99144.78
2022-08-31T20:49:58.646Z,99127.56
2022-08-31T20:52:34.815Z,99140.44
2022-08-31T20:55:04.266Z,99134.38
2022-08-31T20:57:37.531Z,99140.44
2022-08-31T21:00:07.478Z,99142.72
2022-08-31T21:02:34.690Z,99123.50
2022-08-31T21:05:20.705Z,99131.38
2022-08-31T21:07:49.315Z,99141.97
2022-08-31T21:10:16.566Z,99144.16
2022-08-31T21:12:50.643Z,99148.53
2022-08-31T21:15:22.345Z,99144.47
2022-08-31T21:17:56.971Z,99121.53
2022-08-31T21:20:25.464Z,99140.91
2022-08-31T21:22:53.186Z,99120.69
2022-08-31T21:25:20.231Z,99129.41
2022-08-31T21:27:47.130Z,99126.44
2022-08-31T21:30:14.078Z,99122.72
2022-08-31T21:32:40.995Z,99121.31
2022-08-31T21:35:10.925Z,99132.63
2022-08-31T21:37:38.141Z,99141.63
2022-08-31T21:40:06.121Z,99159.50
2022-08-31T21:42:33.206Z,99150.13
2022-08-31T21:45:00.023Z,99162.34
2022-08-31T21:47:28.455Z,99160.41
2022-08-31T21:49:55.238Z,99138.91
2022-08-31T21:52:22.643Z,99154.66
2022-08-31T21:54:49.458Z,99137.56
2022-08-31T21:57:17.758Z,99164.53
2022-08-31T21:59:44.613Z,99141.53
2022-08-31T22:02:12.216Z,99163.94
2022-08-31T22:04:43.421Z,99146.84
2022-08-31T22:07:14.054Z,99150.69
2022-08-31T22:09:41.358Z,99170.84
2022-08-31T22:12:09.726Z,99153.88
2022-08-31T22:14:39.867Z,99159.13
2022-08-31T22:17:07.764Z,99175.84
2022-08-31T22:19:38.872Z,99163.84
2022-08-31T22:22:11.838Z,99166.97
2022-08-31T22:24:40.802Z,99165.03
2022-08-31T22:27:10.870Z,99177.00
2022-08-31T22:29:40.780Z,99172.72
2022-08-31T22:32:13.782Z,99171.69
2022-08-31T22:34:42.369Z,99173.94
2022-08-31T22:37:10.816Z,99175.00
2022-08-31T22:39:37.675Z,99180.69
2022-08-31T22:42:04.974Z,99185.25
2022-08-31T22:44:35.186Z,99184.28
2022-08-31T22:47:03.120Z,99190.25
2022-08-31T22:49:30.079Z,99182.81
2022-08-31T22:51:57.646Z,99168.28
2022-08-31T22:54:25.326Z,99179.69
2022-08-31T22:56:52.623Z,99192.63
2022-08-31T22:59:26.992Z,99197.50
2022-08-31T23:02:01.998Z,99202.75
2022-08-31T23:04:33.507Z,99187.03
2022-08-31T23:07:01.593Z,99193.16
2022-08-31T23:09:30.853Z,99178.63
2022-08-31T23:12:00.778Z,99178.53
2022-08-31T23:14:29.060Z,99178.53
2022-08-31T23:16:59.035Z,99179.91
2022-08-31T23:19:36.509Z,99164.84
2022-08-31T23:22:12.728Z,99181.78
2022-08-31T23:24:47.988Z,99175.56
2022-08-31T23:27:19.249Z,99161.34
2022-08-31T23:29:50.396Z,99166.19
2022-08-31T23:32:21.408Z,99151.22
2022-08-31T23:34:52.427Z,99153.22
2022-08-31T23:37:25.719Z,99156.09
2022-08-31T23:39:54.302Z,99146.41
2022-08-31T23:42:23.588Z,99147.13
2022-08-31T23:44:51.229Z,99129.44
2022-08-31T23:47:23.467Z,99143.56
2022-08-31T23:49:51.236Z,99146.41
2022-08-31T23:52:25.432Z,99146.28
2022-08-31T23:55:00.128Z,99145.63
2022-08-31T23:57:32.292Z,99135.41
